メインページ
METAR-TAF:

METAR-TAF

空港 :

イカルイト空港

イカルイト, ヌナブト準州, カナダ

緯度: 63-45N, 経度: 068-33W, 海抜: 34m

現時点の気象観測

当レポートは23分前の14:00(UTC)に作成
北/北西の風 22kt、最大28ktの突風を伴う
気温 14°C
湿度 72%
気圧 1007 hPa
視程: 48.3km
晴天

METAR: CYFB 201400Z 33022G28KT 30SM SKC 14/09 A2975 RMK SLP076 DENSITY ALT 300FT

時間: 10:23 (14:23 UTC)

予報

当レポートは2時間45分前の11:38(UTC)に作成
予報は20日の 12時(UTC)から 21日の 12時(UTC)まで有効
北/北西の風 15kt
視程: 10km
晴天
20日の 1800時(UTC)から
北/北西の風 20kt、最大30ktの突風を伴う
視程: 10km
高度5000ftの雲はほとんどない
21日の 04時(UTC)から 21日の 06時(UTC)まで徐々に
北/北西の風 15kt、最大25ktの突風を伴う

TAF: CYFB 201138Z 2012/2112 33015KT P6SM SKC FM201800 33020G30KT P6SM FEW050 BECMG 2104/2106 33015G25KT RMK NXT FCST BY 201800Z

4,000以上の空港の気象観測と天気予報(METAR報とTAF報)

利用可能な観測所は地図上に黄色い丸と赤い丸で示す。

丸の上にカーソルを重ねると観測所名を参照できる。

次にクリックすると気象観測と天気予報を参照できる。

マップの切り替え:黒色「×」印の緑ボタンをクリックして拡大、「-」印の緑ボタンをクリックして縮小、緑色の三角印をクリックして隣りの地図に切り替え


METAR-TAF: